Impacts METAR Board
IDs:

KDTW - Detroit Metro/Wayne, MI, US

Updated at: 0300 UTC 22 Jun 2018
Potential Impact None Slight Moderate High
Time 21/15Z 21/16Z 21/17Z 21/18Z 21/19Z 21/20Z 21/21Z 21/22Z 21/23Z 22/00Z 22/01Z 22/02Z 22/03Z
Temp75 75 76 76 76 78 77 77 76 75 73 71 70
Dewpt51 50 53 57 57 56 53 56 56 58 58 57 57
Altim29.89 29.89 29.88 29.86 29.86 29.85 29.84 29.83 29.84 29.84 29.85 29.86 29.87
VIS10 10 10 10 10 10 10 10 10 9 7 8 10
CIG250 250 250 250 250 250 230 220 200 200 180 180 120
CoverBKNBKNBKNBKNOVCBKNBKNOVCOVCOVCOVCOVCOVC
FltCatVFRVFRVFRVFRVFRVFRVFRVFRVFRVFRVFRVFRVFR
WX--------------------------
WDir90808090100908010010070608080
WSpd9 9 9 8 9 10 9 9 11 13 9 7 7
WGst-- -- -- -- 17 -- -- -- -- 19 -- -- --
Raw hourly METARs
KDTW 211453Z 09009KT 10SM BKN250 24/11 A2989 RMK AO2 SLP117 T02390106 55000
KDTW 211553Z 08009KT 10SM BKN250 24/10 A2989 RMK AO2 SLP117 T02390100
KDTW 211653Z 08009KT 10SM BKN250 24/12 A2988 RMK AO2 SLP114 T02440117
KDTW 211753Z 09008KT 10SM BKN250 24/14 A2986 RMK AO2 SLP108 T02440139 10250 20183 58009
KDTW 211853Z 10009G17KT 10SM FEW150 OVC250 24/14 A2986 RMK AO2 SLP107 T02440139
KDTW 211953Z 09010KT 10SM FEW150 BKN250 26/13 A2985 RMK AO2 SLP105 T02560133
KDTW 212053Z 08009KT 10SM SCT150 BKN230 25/12 A2984 RMK AO2 SLP100 T02500117 58008
KDTW 212153Z 10009KT 10SM SCT150 OVC220 25/13 A2983 RMK AO2 SLP100 T02500133
KDTW 212253Z 10011KT 10SM FEW140 OVC200 24/13 A2984 RMK AO2 SLP100 T02440133
KDTW 212353Z 07013G19KT 9SM FEW140 OVC200 24/14 A2984 RMK AO2 SLP100 T02390144 10261 20239 52000
KDTW 220053Z 06009KT 7SM FEW130 OVC180 23/14 A2985 RMK AO2 SLP103 T02280144
KDTW 220153Z 08007KT 8SM SCT130 OVC180 22/14 A2986 RMK AO2 SLP107 T02170139
KDTW 220253Z 08007KT 10SM BKN120 OVC160 21/14 A2987 RMK AO2 SLP110 T02110139 51009



Page loaded:  03:20 UTC  |   08:20 PM Pacific  |   09:20 PM Mountain  |   10:20 PM Central  |   11:20 PM Eastern

 

ADVISORIES

FORECASTS

FORECASTS

OBSERVATIONS

USER TOOLS

ABOUT US